Latest Weather Observations for Warburton

IDW60801

Issued at 2:32 pm WST Wednesday 29 July 2015 (issued every 30 minutes, with the page automatically refreshed every 10 minutes)

About weather observations | Map of weather stations | Latest weather observations for WA | Other Formats
Station Details ID: 013011 Name: WARBURTON AIRFIELD Lat: -26.13 Lon: 126.58 Height: 459.0 m
Data from the previous 72 hours. | See also: Recent months at Warburton
Date/Time
WST
Temp
°C
App
Temp
°C
Dew
Point
Rel
Hum
%
Delta-T
°C
Wind Press
QNH
hPa
Press
MSL
hPa
Rain
since 9 am
mm
Dir
 
Spd
km/h
Gust
km/h
Spd
kts
Gust
kts
29/02:30pm 25.2 20.4 0.0 19 11.8 NW 15 20 8 11 1023.0 - 0.0
29/02:00pm 24.9 19.4 0.4 20 11.6 NW 19 26 10 14 1023.1 - 0.0
29/01:30pm 24.5 19.2 -0.6 19 11.6 N 17 20 9 11 1023.3 - 0.0
29/01:00pm 24.3 18.6 -0.8 19 11.6 NNW 19 26 10 14 1023.6 - 0.0
29/12:30pm 23.5 17.4 -2.2 18 11.5 N 20 28 11 15 1024.1 - 0.0
29/12:00pm 22.6 16.0 -3.7 17 11.3 NNW 22 30 12 16 1024.6 1024.3 0.0
29/11:30am 22.4 16.1 -3.8 17 11.2 N 20 30 11 16 1025.2 - 0.0
29/11:00am 21.9 14.4 -4.2 17 11.1 N 26 35 14 19 1025.5 - 0.0
29/10:30am 20.9 13.8 -4.3 18 10.6 N 24 32 13 17 1026.1 - 0.0
29/10:00am 20.4 13.0 -4.0 19 10.2 N 26 35 14 19 1026.3 - 0.0
29/09:30am 18.8 11.7 -4.0 21 9.4 N 24 35 13 19 1026.5 - 0.0
29/09:00am 18.1 10.3 -3.9 22 9.0 N 28 41 15 22 1026.6 1026.3 0.0
29/08:30am 17.1 10.1 -3.1 25 8.4 N 24 35 13 19 1026.5 - 0.0
29/08:00am 15.4 8.9 -2.5 29 7.3 N 22 28 12 15 1026.4 - 0.0
29/07:30am 13.9 7.4 -2.5 32 6.6 NNE 22 32 12 17 1026.2 - 0.0
29/07:00am 12.5 7.0 -2.1 36 5.9 NNE 17 24 9 13 1025.5 - 0.0
29/06:30am 11.6 6.5 -2.2 38 5.5 N 15 20 8 11 1025.4 - 0.0
29/06:00am 11.6 5.5 -2.2 38 5.5 NNE 20 28 11 15 1024.7 1024.4 0.0
29/05:30am 11.9 6.0 -2.3 37 5.7 NNE 19 26 10 14 1024.9 - 0.0
29/05:00am 12.0 5.9 -2.2 37 5.7 NNE 20 30 11 16 1024.6 - 0.0
29/04:30am 11.9 5.4 -2.3 37 5.7 NNE 22 28 12 15 1024.7 - 0.0
29/04:00am 12.4 6.3 -2.2 36 5.9 NNE 20 28 11 15 1024.9 - 0.0
29/03:30am 12.5 6.6 -2.1 36 5.9 NNE 19 26 10 14 1025.0 - 0.0
29/03:00am 12.5 7.0 -2.1 36 5.9 NNE 17 24 9 13 1025.3 1025.1 0.0
29/02:30am 12.7 7.2 -2.3 35 6.0 NNE 17 24 9 13 1025.4 - 0.0
29/02:00am 13.0 7.4 -2.5 34 6.2 NNE 17 22 9 12 1025.6 - 0.0
29/01:30am 13.6 8.0 -2.8 32 6.6 NNE 17 26 9 14 1025.7 - 0.0
29/01:00am 14.0 8.4 -3.3 30 6.9 NNE 17 22 9 12 1025.8 - 0.0
29/12:30am 13.7 8.5 -3.1 31 6.7 NNE 15 20 8 11 1025.8 - 0.0
29/12:00am 12.9 8.1 -2.2 35 6.1 NNE 13 19 7 10 1025.8 1025.6 0.0
 
Date/Time
WST
Temp
°C
App
Temp
°C
Dew
Point
Rel
Hum
%
Delta-T
°C
Wind Press
QNH
hPa
Press
MSL
hPa
Rain
since 9 am
mm
Dir
 
Spd
km/h
Gust
km/h
Spd
kts
Gust
kts
28/11:30pm 11.7 7.5 -1.1 41 5.2 NE 11 13 6 7 1025.9 - 0.0
28/11:00pm 10.7 6.7 0.2 48 4.4 NNE 11 15 6 8 1025.9 - 0.0
28/10:30pm 10.7 7.3 -0.4 46 4.5 N 7 9 4 5 1025.9 - 0.0
28/10:00pm 12.5 8.7 -0.4 41 5.4 NNE 9 11 5 6 1025.8 - 0.0
28/09:30pm 12.8 9.4 -0.8 39 5.7 NNE 7 9 4 5 1025.9 - 0.0
28/09:00pm 12.7 8.0 0.8 44 5.1 NE 15 17 8 9 1025.5 1025.3 0.0
28/08:30pm 10.9 7.5 2.0 54 3.9 NNE 9 11 5 6 1026.2 - 0.0
28/08:00pm 12.0 8.9 1.1 47 4.7 NNE 7 7 4 4 1026.2 - 0.0
28/07:30pm 13.0 10.0 2.0 47 4.9 NNE 7 9 4 5 1026.1 - 0.0
28/07:00pm 14.7 11.5 0.9 39 6.1 NNE 7 9 4 5 1025.9 - 0.0
28/06:30pm 15.5 12.6 1.3 38 6.4 NNE 6 7 3 4 1025.7 - 0.0
28/06:00pm 16.8 13.2 0.5 33 7.2 NE 9 11 5 6 1025.3 1025.1 0.0
28/05:30pm 18.1 14.8 0.3 30 8.0 NE 7 7 4 4 1025.5 - 0.0
28/05:00pm 19.8 16.1 -0.2 26 9.0 NE 9 11 5 6 1025.3 - 0.0
28/04:30pm 21.1 17.3 -0.8 23 9.9 NE 9 15 5 8 1025.2 - 0.0
28/04:00pm 21.6 17.5 -0.4 23 10.0 NNE 11 17 6 9 1025.2 - 0.0
28/03:30pm 21.8 17.5 -1.5 21 10.4 N 11 19 6 10 1025.2 - 0.0
28/03:00pm 21.4 16.8 -1.2 22 10.1 N 13 20 7 11 1025.3 1025.1 0.0
28/02:30pm 21.9 17.0 -0.8 22 10.3 NNE 15 20 8 11 1025.6 - 0.0
28/02:00pm 22.0 17.0 -1.3 21 10.5 NNE 15 20 8 11 1026.1 - 0.0
28/01:30pm 21.6 16.9 -1.6 21 10.3 NE 13 19 7 10 1026.4 - 0.0
28/01:00pm 20.1 15.0 -1.7 23 9.6 N 15 24 8 13 1026.8 - 0.0
28/12:30pm 20.2 15.8 0.1 26 9.1 NNE 13 22 7 12 1027.6 - 0.0
28/12:00pm 19.4 14.6 0.4 28 8.6 NNE 15 22 8 12 1028.1 1027.9 0.0
28/11:30am 18.7 14.1 1.7 32 7.9 NE 15 22 8 12 1028.8 - 0.0
28/11:00am 18.5 13.3 2.4 34 7.6 NE 19 26 10 14 1029.2 - 0.0
28/10:30am 17.2 12.1 2.8 38 6.7 NE 19 30 10 16 1029.6 - 0.0
28/10:00am 15.5 9.8 3.0 43 5.8 NE 22 32 12 17 1029.9 - 0.0
28/09:30am 14.4 8.7 2.9 46 5.3 NE 22 32 12 17 1030.4 - 0.0
28/09:00am 12.9 7.3 3.6 53 4.2 NE 22 32 12 17 1031.0 1030.8 0.0
28/08:30am 11.9 6.4 3.9 58 3.7 NE 22 35 12 19 1031.0 - 0.0
28/08:00am 10.8 5.6 3.6 61 3.3 NE 20 32 11 17 1030.9 - 0.0
28/07:30am 10.1 5.5 3.6 64 2.9 ENE 17 26 9 14 1030.7 - 0.0
28/07:00am 9.2 4.5 3.4 67 2.6 ENE 17 24 9 13 1030.0 - 0.0
28/06:30am 8.3 4.8 3.4 71 2.2 ENE 11 19 6 10 1029.9 - 0.0
28/06:00am 8.4 4.5 3.5 71 2.1 E 13 19 7 10 1029.7 1029.5 0.0
28/05:30am 8.8 4.9 3.4 69 2.4 ENE 13 20 7 11 1029.4 - 0.0
28/05:00am 9.2 4.5 3.4 67 2.6 E 17 26 9 14 1029.0 - 0.0
28/04:30am 9.4 4.8 3.6 67 2.6 E 17 24 9 13 1028.8 - 0.0
28/04:00am 9.9 5.3 3.9 66 2.7 E 17 26 9 14 1028.7 - 0.0
28/03:30am 9.8 5.3 4.0 67 2.6 E 17 20 9 11 1028.8 - 0.0
28/03:00am 9.9 5.0 4.1 67 2.6 E 19 24 10 13 1029.0 1028.8 0.0
28/02:30am 9.8 5.3 4.0 67 2.6 E 17 24 9 13 1029.3 - 0.0
28/02:00am 10.0 6.5 3.7 65 2.8 E 11 20 6 11 1029.5 - 0.0
28/01:30am 10.6 6.8 3.9 63 3.0 ENE 13 17 7 9 1029.7 - 0.0
28/01:00am 10.5 7.1 3.8 63 3.0 ENE 11 13 6 7 1029.9 - 0.0
28/12:30am 11.1 7.6 3.6 60 3.4 E 11 19 6 10 1030.0 - 0.0
28/12:00am 11.6 7.7 3.6 58 3.6 E 13 19 7 10 1030.0 1029.8 0.0
 
Date/Time
WST
Temp
°C
App
Temp
°C
Dew
Point
Rel
Hum
%
Delta-T
°C
Wind Press
QNH
hPa
Press
MSL
hPa
Rain
since 9 am
mm
Dir
 
Spd
km/h
Gust
km/h
Spd
kts
Gust
kts
27/11:30pm 11.8 7.1 3.3 56 3.9 E 17 20 9 11 1030.1 - 0.0
27/11:00pm 11.9 8.0 3.2 55 3.9 E 13 20 7 11 1030.4 - 0.0
27/10:30pm 12.6 7.4 2.7 51 4.5 E 19 24 10 13 1030.2 - 0.0
27/10:00pm 12.8 7.6 2.6 50 4.6 E 19 26 10 14 1029.7 - 0.0
27/09:30pm 13.0 7.7 2.8 50 4.6 E 20 26 11 14 1029.4 - 0.0
27/09:00pm 13.1 7.9 2.6 49 4.7 E 19 24 10 13 1029.8 1029.6 0.0
27/08:30pm 13.8 8.4 2.7 47 5.0 E 20 26 11 14 1030.3 - 0.0
27/08:00pm 14.1 9.3 2.7 46 5.2 E 17 26 9 14 1030.2 - 0.0
27/07:30pm 13.6 9.7 3.4 50 4.7 ESE 13 17 7 9 1030.3 - 0.0
27/07:00pm 13.5 10.0 3.6 51 4.6 ESE 11 13 6 7 1030.3 - 0.0
27/06:30pm 13.9 10.4 3.4 49 4.9 ESE 11 13 6 7 1030.4 - 0.0
27/06:00pm 15.2 11.6 2.7 43 5.7 ESE 11 13 6 7 1030.2 1030.0 0.0
27/05:30pm 16.3 11.8 2.3 39 6.4 ESE 15 20 8 11 1030.0 - 0.0
27/05:00pm 17.0 11.6 2.2 37 6.8 ESE 20 28 11 15 1030.0 - 0.0
27/04:30pm 17.6 12.1 2.0 35 7.2 ESE 20 28 11 15 1029.8 - 0.0
27/04:00pm 18.8 13.0 2.2 33 7.8 ESE 22 30 12 16 1029.3 - 0.0
27/03:30pm 18.5 12.7 2.4 34 7.6 E 22 32 12 17 1029.4 - 0.0
27/03:00pm 19.1 13.2 2.0 32 7.9 E 22 32 12 17 1029.5 1029.3 0.0
27/02:30pm 19.4 14.2 2.3 32 8.1 E 19 30 10 16 1029.4 - 0.0
27/02:00pm 19.0 13.5 2.0 32 7.9 E 20 32 11 17 1029.5 - 0.0
27/01:30pm 18.3 12.5 2.2 34 7.5 ESE 22 33 12 18 1029.8 - 0.0
27/01:00pm 18.1 12.3 2.4 35 7.3 E 22 30 12 16 1030.0 - 0.0
27/12:30pm 17.7 12.0 2.8 37 7.0 E 22 33 12 18 1030.7 - 0.0
27/12:00pm 17.6 12.3 2.8 37 6.9 E 20 30 11 16 1031.2 1031.0 0.0
27/11:30am 17.0 10.9 3.0 39 6.6 E 24 33 13 18 1031.8 - 0.0
27/11:00am 16.6 10.2 3.0 40 6.4 ESE 26 41 14 22 1032.4 - 0.0
27/10:30am 16.3 9.9 3.0 41 6.2 E 26 37 14 20 1032.7 - 0.0
27/10:00am 15.4 9.1 3.5 45 5.6 E 26 39 14 21 1033.2 - 0.0
27/09:30am 14.8 9.3 3.9 48 5.1 E 22 32 12 17 1033.6 - 0.0
27/09:00am 13.5 8.4 4.1 53 4.4 E 20 28 11 15 1033.4 1033.2 0.0
27/08:30am 12.5 7.6 4.2 57 3.9 E 19 30 10 16 1033.1 - 0.0
27/08:00am 11.3 6.8 4.3 62 3.2 E 17 26 9 14 1032.8 - 0.0
27/07:30am 9.5 4.7 4.5 71 2.3 E 19 28 10 15 1032.0 - 0.0
27/07:00am 7.5 2.5 4.5 81 1.3 ESE 20 26 11 14 1031.8 - 0.0
27/06:30am 6.1 1.6 4.1 87 0.9 ESE 17 20 9 11 1031.6 - 0.0
27/06:00am 6.2 1.7 4.0 86 1.0 ESE 17 20 9 11 1031.7 1031.5 0.0
27/05:30am 6.5 1.6 4.0 84 1.1 ESE 19 26 10 14 1031.4 - 0.0
27/05:00am 6.4 2.2 3.7 83 1.2 SE 15 19 8 10 1031.4 - 0.0
27/04:30am 6.7 2.5 3.7 81 1.3 SE 15 19 8 10 1031.3 - 0.0
27/04:00am 6.8 2.1 3.4 79 1.5 SE 17 22 9 12 1031.0 - 0.0
27/03:30am 6.8 2.5 3.2 78 1.6 ESE 15 20 8 11 1031.0 - 0.0
27/03:00am 6.4 2.8 2.9 78 1.5 ESE 11 13 6 7 1031.4 1031.2 0.0
27/02:30am 6.9 3.2 2.6 74 1.8 SE 11 15 6 8 1031.4 - 0.0
27/02:00am 7.1 3.4 2.2 71 2.1 SSE 11 13 6 7 1031.6 - 0.0
27/01:30am 7.9 3.4 2.0 66 2.5 SE 15 19 8 10 1031.5 - 0.0
27/01:00am 8.3 3.4 1.7 63 2.8 ESE 17 20 9 11 1031.3 - 0.0
27/12:30am 8.1 3.6 1.9 65 2.6 ESE 15 19 8 10 1031.4 - 0.0
27/12:00am 7.7 3.6 2.4 69 2.2 SE 13 15 7 8 1031.7 1031.5 0.0
 
Date/Time
WST
Temp
°C
App
Temp
°C
Dew
Point
Rel
Hum
%
Delta-T
°C
Wind Press
QNH
hPa
Press
MSL
hPa
Rain
since 9 am
mm
Dir
 
Spd
km/h
Gust
km/h
Spd
kts
Gust
kts
26/11:30pm 8.0 4.2 2.0 66 2.5 ESE 11 13 6 7 1031.7 - 0.0
26/11:00pm 8.5 4.8 2.1 64 2.7 SE 11 13 6 7 1031.5 - 0.0
26/10:30pm 8.7 5.0 2.1 63 2.8 ESE 11 13 6 7 1031.4 - 0.0
26/10:00pm 8.8 5.0 1.9 62 2.9 ESE 11 13 6 7 1031.5 - 0.0
26/09:30pm 9.3 5.6 2.2 61 3.1 SE 11 13 6 7 1031.4 - 0.0
26/09:00pm 10.2 6.3 1.3 54 3.8 SE 11 13 6 7 1031.2 1031.0 0.0
26/08:30pm 11.0 6.8 1.5 52 4.1 SE 13 15 7 8 1030.8 - 0.0
26/08:00pm 12.6 8.2 0.4 43 5.2 SE 13 17 7 9 1030.5 - 0.0
26/07:30pm 12.9 8.9 0.6 43 5.3 SE 11 17 6 9 1030.1 - 0.0
26/07:00pm 12.0 8.7 2.5 52 4.2 SE 9 13 5 7 1029.8 - 0.0
26/06:30pm 13.2 9.7 1.5 45 5.2 SE 9 11 5 6 1029.4 - 0.0
26/06:00pm 14.2 10.2 0.5 39 5.9 SE 11 11 6 6 1028.9 1028.7 0.0
26/05:30pm 15.6 11.5 -0.2 34 6.9 SE 11 15 6 8 1028.4 - 0.0
26/05:00pm 16.8 12.2 -1.3 29 7.8 SE 13 17 7 9 1028.2 - 0.0
26/04:30pm 17.9 12.8 -1.9 26 8.5 ESE 15 20 8 11 1027.9 - 0.0
26/04:00pm 18.3 12.8 -2.0 25 8.7 ESE 17 26 9 14 1027.8 - 0.0
26/03:30pm 18.5 13.4 -1.9 25 8.8 E 15 22 8 12 1027.7 - 0.0
26/03:00pm 18.7 13.8 -0.7 27 8.5 ESE 15 22 8 12 1027.6 1027.4 0.0

Other Formats:

Comma delimited format used in spreadsheet applications
http://www.bom.gov.au/fwo/IDW60801/IDW60801.94457.axf

JavaScript Object Notation format (JSON) in row-major order
http://www.bom.gov.au/fwo/IDW60801/IDW60801.94457.json